Time;durP1;ratioP1;P1;durP2;ratioP2;P2;SDS_P1;SDS_P2;PMS_P1;PMS_P2;Temp;Humidity;BMP_temperature;BMP_pressure;BME280_temperature;BME280_humidity;BME280_pressure;Samples;Min_cycle;Max_cycle;Signal;HPM_P1;HPM_P2
2021/09/02 00:00:29;;;;;;;6.45;3.97;;;486.70;2380.80;;;;;;5034462;28;20029;-81
2021/09/02 00:02:54;;;;;;;6.35;4.05;;;486.80;2380.80;;;;;;5035732;28;20033;-81
2021/09/02 00:05:20;;;;;;;9.75;4.32;;;486.80;2380.80;;;;;;5035323;28;20081;-81
2021/09/02 00:07:46;;;;;;;7.00;4.60;;;486.80;2380.80;;;;;;5033562;28;20393;-81
2021/09/02 00:10:12;;;;;;;7.90;5.45;;;486.80;2380.80;;;;;;5034828;28;20053;-79
2021/09/02 00:12:38;;;;;;;8.60;5.35;;;486.80;2380.80;;;;;;5032410;28;20037;-79
2021/09/02 00:15:06;;;;;;;9.00;4.32;;;486.80;2380.80;;;;;;5032796;28;20044;-79
2021/09/02 00:17:32;;;;;;;7.20;4.32;;;486.80;2380.80;;;;;;5032137;28;20029;-78
2021/09/02 00:19:58;;;;;;;9.15;4.28;;;486.80;2380.80;;;;;;5032319;28;20033;-78
2021/09/02 00:22:24;;;;;;;10.05;4.85;;;486.80;2380.80;;;;;;5034001;28;20376;-79
2021/09/02 00:24:50;;;;;;;10.27;4.47;;;486.80;2380.80;;;;;;5032610;28;20029;-78
2021/09/02 00:27:16;;;;;;;10.52;5.28;;;486.80;2380.80;;;;;;5032313;28;20025;-79
2021/09/02 00:29:41;;;;;;;7.88;4.68;;;486.80;2380.80;;;;;;5032310;28;20338;-79
2021/09/02 00:32:07;;;;;;;6.78;3.97;;;486.80;2380.80;;;;;;5032141;28;20029;-78
2021/09/02 00:34:33;;;;;;;9.35;4.50;;;486.80;2380.80;;;;;;5032351;28;20029;-79
2021/09/02 00:36:59;;;;;;;7.70;4.78;;;486.70;2380.80;;;;;;5032334;28;20033;-79
2021/09/02 00:39:24;;;;;;;7.18;4.63;;;486.70;2380.80;;;;;;5032073;28;20060;-79
2021/09/02 00:41:50;;;;;;;9.00;4.50;;;486.70;2380.80;;;;;;5032298;28;20063;-79
2021/09/02 00:44:43;;;;;;;7.10;4.70;;;486.70;2380.80;;;;;;5035830;28;20030;-79
2021/09/02 00:47:10;;;;;;;7.78;4.43;;;486.70;2380.80;;;;;;5036503;28;20033;-79
2021/09/02 00:49:38;;;;;;;8.18;4.10;;;486.70;2380.80;;;;;;5036412;28;20120;-79
2021/09/02 00:52:09;;;;;;;12.75;5.63;;;486.80;2380.80;;;;;;5036257;28;20037;-78
2021/09/02 00:54:35;;;;;;;7.63;5.25;;;486.80;2380.80;;;;;;5036907;28;20362;-79
2021/09/02 00:57:01;;;;;;;8.57;4.78;;;486.60;2380.80;;;;;;5035948;28;20026;-79
2021/09/02 00:59:27;;;;;;;7.32;4.55;;;486.70;2380.80;;;;;;5036160;28;20029;-79
2021/09/02 01:01:56;;;;;;;6.43;4.47;;;486.70;2380.80;;;;;;5035716;28;20362;-79
2021/09/02 01:04:23;;;;;;;8.65;4.97;;;486.70;2380.80;;;;;;5037294;28;20052;-79
2021/09/02 01:06:49;;;;;;;12.23;4.95;;;486.80;2380.80;;;;;;5037406;28;20037;-79
2021/09/02 01:09:16;;;;;;;6.50;4.65;;;486.70;2380.80;;;;;;5035909;28;20097;-79
2021/09/02 01:11:42;;;;;;;9.13;5.22;;;486.80;2380.80;;;;;;5035775;28;20029;-79
2021/09/02 01:14:14;;;;;;;7.47;4.68;;;486.70;2380.80;;;;;;5036585;28;20029;-79
2021/09/02 01:16:39;;;;;;;6.78;4.63;;;486.70;2380.80;;;;;;5036157;28;20029;-79
2021/09/02 01:19:05;;;;;;;7.25;4.85;;;486.70;2380.80;;;;;;5035843;28;20524;-80
2021/09/02 01:21:31;;;;;;;7.53;4.47;;;486.60;2380.80;;;;;;5035674;28;20033;-79
2021/09/02 01:23:57;;;;;;;6.15;4.28;;;486.60;2380.80;;;;;;5036060;28;20060;-79
2021/09/02 01:26:24;;;;;;;8.07;4.40;;;486.60;2380.80;;;;;;5035926;28;20075;-79
2021/09/02 01:28:50;;;;;;;9.40;4.07;;;486.60;2380.80;;;;;;5036541;28;20389;-79
2021/09/02 01:31:20;;;;;;;8.10;4.38;;;486.60;2380.80;;;;;;5035681;28;20465;-79
2021/09/02 01:33:50;;;;;;;10.68;5.13;;;486.70;2380.80;;;;;;5035660;28;20045;-79
2021/09/02 01:36:17;;;;;;;7.65;4.47;;;486.60;2380.80;;;;;;5035516;28;20026;-79
2021/09/02 01:38:44;;;;;;;6.35;4.05;;;486.60;2380.80;;;;;;5035735;28;20049;-79
2021/09/02 01:41:09;;;;;;;9.18;4.15;;;486.60;2380.80;;;;;;5036564;28;20053;-79
2021/09/02 01:43:35;;;;;;;11.50;4.55;;;486.60;2380.80;;;;;;5035410;28;20131;-79
2021/09/02 01:46:02;;;;;;;9.80;4.20;;;486.70;2380.80;;;;;;5036710;28;20032;-79
2021/09/02 01:48:32;;;;;;;9.50;4.80;;;486.60;2380.80;;;;;;5035343;28;20492;-80
2021/09/02 01:50:59;;;;;;;6.07;3.95;;;486.60;2380.80;;;;;;5035004;28;20049;-79
2021/09/02 01:53:24;;;;;;;6.57;4.60;;;486.90;2380.80;;;;;;5035350;28;20033;-79
2021/09/02 01:55:51;;;;;;;8.02;4.35;;;486.60;2380.80;;;;;;5034608;28;20362;-79
2021/09/02 01:58:17;;;;;;;6.32;4.47;;;486.60;2380.80;;;;;;5034994;28;20025;-79
2021/09/02 02:00:43;;;;;;;6.68;4.60;;;486.60;2380.80;;;;;;5035307;28;20516;-79
2021/09/02 02:03:09;;;;;;;6.75;4.47;;;486.50;2380.80;;;;;;5034879;28;20424;-79
2021/09/02 02:05:37;;;;;;;6.65;4.70;;;486.50;2380.80;;;;;;5035045;28;20025;-79
2021/09/02 02:08:04;;;;;;;8.93;4.38;;;486.50;2380.80;;;;;;5035245;28;20160;-79
2021/09/02 02:10:31;;;;;;;8.32;4.10;;;486.40;2380.80;;;;;;5034705;28;20061;-80
2021/09/02 02:13:00;;;;;;;6.93;4.18;;;486.50;2380.80;;;;;;5034940;28;20464;-80
2021/09/02 02:15:27;;;;;;;8.05;4.65;;;486.50;2380.80;;;;;;5036163;28;20495;-79
2021/09/02 02:17:54;;;;;;;8.40;4.50;;;486.50;2380.80;;;;;;5035283;28;20427;-79
2021/09/02 02:20:20;;;;;;;7.47;4.65;;;486.50;2380.80;;;;;;5034069;28;20465;-79
2021/09/02 02:22:46;;;;;;;7.35;4.70;;;486.40;2380.80;;;;;;5035685;28;20037;-80
2021/09/02 02:25:13;;;;;;;8.25;4.47;;;486.40;2380.80;;;;;;5035054;28;20479;-79
2021/09/02 02:27:40;;;;;;;8.07;4.45;;;486.50;2380.80;;;;;;5033999;28;20116;-79
2021/09/02 02:30:10;;;;;;;7.57;4.30;;;486.40;2380.80;;;;;;5033958;28;20052;-79
2021/09/02 02:32:36;;;;;;;7.38;4.28;;;486.40;2380.80;;;;;;5033523;28;20034;-80
2021/09/02 02:35:03;;;;;;;7.65;3.90;;;486.40;2380.80;;;;;;5033930;28;20033;-79
2021/09/02 02:37:29;;;;;;;6.70;4.68;;;486.40;2380.80;;;;;;5033910;28;20120;-80
2021/09/02 02:39:55;;;;;;;8.30;4.63;;;461.70;2380.80;;;;;;5033600;28;20079;-80
2021/09/02 02:42:21;;;;;;;6.60;4.30;;;461.70;2380.80;;;;;;5033778;28;20427;-79
2021/09/02 02:44:46;;;;;;;7.75;4.15;;;461.70;2380.80;;;;;;5033459;28;20057;-79
2021/09/02 02:47:12;;;;;;;10.75;4.38;;;461.60;2380.80;;;;;;5033470;28;20063;-80
2021/09/02 02:49:38;;;;;;;7.00;4.28;;;461.70;2380.80;;;;;;5035909;28;20061;-80
2021/09/02 02:52:05;;;;;;;6.60;4.13;;;461.70;2380.80;;;;;;5034061;28;20397;-78
2021/09/02 02:54:32;;;;;;;6.60;4.28;;;461.70;2380.80;;;;;;5033983;28;20061;-80
2021/09/02 02:56:57;;;;;;;7.85;4.28;;;461.70;2380.80;;;;;;5035457;28;20072;-80
2021/09/02 02:59:24;;;;;;;7.00;4.18;;;461.70;2380.80;;;;;;5035124;28;20033;-80
2021/09/02 03:01:50;;;;;;;7.68;4.13;;;461.70;2380.80;;;;;;5033984;28;20060;-79
2021/09/02 03:04:16;;;;;;;6.25;4.07;;;461.70;2380.80;;;;;;5033993;28;20577;-79
2021/09/02 03:06:42;;;;;;;6.82;4.43;;;461.70;2380.80;;;;;;5032892;28;20031;-79
2021/09/02 03:09:08;;;;;;;8.00;4.05;;;461.70;2380.80;;;;;;5033515;28;20029;-79
2021/09/02 03:11:35;;;;;;;7.28;4.00;;;461.60;2380.80;;;;;;5033762;28;20040;-79
2021/09/02 03:14:01;;;;;;;8.18;5.13;;;461.60;2380.80;;;;;;5033208;28;20029;-80
2021/09/02 03:16:27;;;;;;;8.63;4.28;;;461.60;2380.80;;;;;;5033621;28;20079;-79
2021/09/02 03:18:53;;;;;;;8.75;4.60;;;461.70;2380.80;;;;;;5033705;28;20121;-79
2021/09/02 03:21:19;;;;;;;8.73;4.60;;;461.60;2380.80;;;;;;5033541;28;20102;-79
2021/09/02 03:23:45;;;;;;;6.03;4.32;;;461.60;2380.80;;;;;;5033598;28;20477;-79
2021/09/02 03:26:11;;;;;;;6.68;4.38;;;461.60;2380.80;;;;;;5034773;28;20028;-79
2021/09/02 03:28:37;;;;;;;7.53;4.43;;;461.60;2380.80;;;;;;5032958;28;20091;-79
2021/09/02 03:31:04;;;;;;;6.53;4.53;;;461.60;2380.80;;;;;;5034564;28;20398;-80
2021/09/02 03:33:30;;;;;;;8.82;4.43;;;461.50;2380.80;;;;;;5035184;28;20036;-79
2021/09/02 03:35:55;;;;;;;6.60;4.03;;;461.50;2380.80;;;;;;5033025;28;20025;-79
2021/09/02 03:38:21;;;;;;;6.80;4.47;;;461.50;2380.80;;;;;;5033386;28;20056;-80
2021/09/02 03:40:47;;;;;;;7.35;4.25;;;461.50;2380.80;;;;;;5033200;28;20404;-79
2021/09/02 03:43:13;;;;;;;7.28;4.50;;;461.40;2380.80;;;;;;5032824;28;20025;-80
2021/09/02 03:45:39;;;;;;;9.52;3.75;;;461.40;2380.80;;;;;;5033484;28;20071;-79
2021/09/02 03:48:05;;;;;;;7.40;4.20;;;461.50;2380.80;;;;;;5033203;28;20076;-78
2021/09/02 03:50:30;;;;;;;8.15;4.40;;;461.50;2380.80;;;;;;5033118;28;20032;-80
2021/09/02 03:52:56;;;;;;;9.15;4.22;;;461.50;2380.80;;;;;;5032980;28;20038;-79
2021/09/02 03:55:22;;;;;;;6.30;4.10;;;461.40;2380.80;;;;;;5033079;28;20022;-80
2021/09/02 03:57:48;;;;;;;8.88;4.63;;;461.50;2380.80;;;;;;5033040;28;20464;-80
2021/09/02 04:00:14;;;;;;;7.65;4.65;;;461.50;2380.80;;;;;;5034278;28;20025;-79
2021/09/02 04:02:40;;;;;;;11.38;4.72;;;461.40;2380.80;;;;;;5033729;28;20127;-79
2021/09/02 04:05:08;;;;;;;8.25;4.53;;;461.40;2380.80;;;;;;5034274;28;20477;-79
2021/09/02 04:07:34;;;;;;;6.82;5.03;;;461.40;2380.80;;;;;;5032815;28;20022;-80
2021/09/02 04:10:00;;;;;;;7.53;4.43;;;461.30;2380.80;;;;;;5032487;28;20022;-79
2021/09/02 04:12:25;;;;;;;7.75;4.45;;;461.40;2380.80;;;;;;5032610;28;20037;-79
2021/09/02 04:14:52;;;;;;;7.10;4.72;;;461.40;2380.80;;;;;;5034010;28;20076;-79
2021/09/02 04:17:18;;;;;;;6.75;4.75;;;461.30;2380.80;;;;;;5034009;28;20021;-80
2021/09/02 04:19:44;;;;;;;5.72;3.90;;;486.40;2380.80;;;;;;5032411;28;20385;-80
2021/09/02 04:22:10;;;;;;;7.57;4.43;;;461.40;2380.80;;;;;;5032553;28;20079;-79
2021/09/02 04:24:36;;;;;;;6.88;4.40;;;461.40;2380.80;;;;;;5034955;28;20029;-80
2021/09/02 04:27:01;;;;;;;8.02;4.72;;;461.40;2380.80;;;;;;5034603;28;20032;-79
2021/09/02 04:29:27;;;;;;;6.63;4.32;;;461.40;2380.80;;;;;;5035133;28;20405;-79
2021/09/02 04:31:53;;;;;;;8.35;4.90;;;461.30;2380.80;;;;;;5032181;28;20033;-80
2021/09/02 04:34:19;;;;;;;9.18;4.95;;;461.20;2380.80;;;;;;5032461;28;20030;-80
2021/09/02 04:36:44;;;;;;;7.82;4.35;;;461.20;2380.80;;;;;;5032408;28;20025;-80
2021/09/02 04:39:10;;;;;;;8.93;4.90;;;461.20;2380.80;;;;;;5032412;28;20059;-79
2021/09/02 04:41:36;;;;;;;8.85;5.13;;;461.20;2380.80;;;;;;5032491;28;20040;-79
2021/09/02 04:44:02;;;;;;;9.35;4.90;;;461.30;2380.80;;;;;;5032323;28;20033;-79
2021/09/02 04:46:28;;;;;;;9.60;4.95;;;461.30;2380.80;;;;;;5032162;28;20026;-80
2021/09/02 04:48:54;;;;;;;18.08;6.63;;;461.30;2380.80;;;;;;5032466;28;20453;-80
2021/09/02 04:51:19;;;;;;;8.85;5.38;;;461.30;2380.80;;;;;;5032107;28;20040;-79
2021/09/02 04:53:45;;;;;;;10.70;5.07;;;461.30;2380.80;;;;;;5033559;28;20030;-79
2021/09/02 04:56:12;;;;;;;7.68;5.38;;;461.30;2380.80;;;;;;5032191;28;20034;-80
2021/09/02 04:58:39;;;;;;;8.65;4.90;;;461.30;2380.80;;;;;;5032052;28;20116;-79
2021/09/02 05:01:05;;;;;;;9.23;4.80;;;461.30;2380.80;;;;;;5032139;28;20034;-79
2021/09/02 05:03:31;;;;;;;9.95;5.00;;;461.40;2380.80;;;;;;5032080;28;20537;-79
2021/09/02 05:05:57;;;;;;;7.22;4.70;;;461.40;2380.80;;;;;;5031883;28;20053;-80
2021/09/02 05:08:23;;;;;;;11.68;5.13;;;461.40;2380.80;;;;;;5032095;28;20465;-79
2021/09/02 05:10:52;;;;;;;6.80;4.68;;;461.50;2380.80;;;;;;5031958;28;20029;-79
2021/09/02 05:13:18;;;;;;;13.05;5.38;;;461.50;2380.80;;;;;;5033302;28;20030;-79
2021/09/02 05:15:43;;;;;;;13.85;5.07;;;461.50;2380.80;;;;;;5031937;28;20025;-79
2021/09/02 05:18:09;;;;;;;6.82;4.88;;;461.60;2380.80;;;;;;5032094;28;20037;-79
2021/09/02 05:20:35;;;;;;;11.65;4.80;;;461.60;2380.80;;;;;;5031718;28;20580;-79
2021/09/02 05:23:01;;;;;;;9.60;4.55;;;461.60;2380.80;;;;;;5032036;28;20026;-80
2021/09/02 05:25:27;;;;;;;11.93;5.18;;;461.70;2380.80;;;;;;5031840;28;20028;-79
2021/09/02 05:27:53;;;;;;;8.13;5.03;;;461.70;2380.80;;;;;;5032881;28;20022;-82
2021/09/02 05:30:19;;;;;;;8.73;5.10;;;486.40;2380.80;;;;;;5034222;28;20085;-79
2021/09/02 05:32:46;;;;;;;8.93;5.50;;;486.40;2380.80;;;;;;5035750;28;20034;-80
2021/09/02 05:35:12;;;;;;;11.55;5.07;;;486.50;2380.80;;;;;;5035501;28;20025;-79
2021/09/02 05:37:38;;;;;;;8.40;5.18;;;486.50;2380.80;;;;;;5035588;28;20048;-79
2021/09/02 05:40:05;;;;;;;8.70;5.05;;;486.50;2380.80;;;;;;5035533;28;20453;-77
2021/09/02 05:42:31;;;;;;;8.50;4.57;;;486.50;2380.80;;;;;;5035583;28;20428;-78
2021/09/02 05:44:57;;;;;;;7.47;4.65;;;486.40;2380.80;;;;;;5035750;28;20044;-81
2021/09/02 05:47:23;;;;;;;10.25;5.22;;;486.40;2380.80;;;;;;5035594;28;20435;-79
2021/09/02 05:49:49;;;;;;;8.68;4.95;;;486.50;2380.80;;;;;;5036418;28;20033;-79
2021/09/02 05:52:14;;;;;;;11.50;5.20;;;486.50;2380.80;;;;;;5035290;28;20036;-79
2021/09/02 05:54:40;;;;;;;7.82;4.88;;;486.50;2380.80;;;;;;5035132;28;20028;-79
2021/09/02 05:57:06;;;;;;;6.88;4.60;;;486.60;2380.80;;;;;;5035198;28;20068;-79
2021/09/02 05:59:32;;;;;;;9.02;5.25;;;486.70;2380.80;;;;;;5035304;28;20461;-78
2021/09/02 06:01:58;;;;;;;10.05;5.00;;;486.70;2380.80;;;;;;5036513;28;20026;-78
2021/09/02 06:04:23;;;;;;;9.80;5.80;;;486.70;2380.80;;;;;;5035117;28;20117;-78
2021/09/02 06:06:49;;;;;;;7.80;4.80;;;486.70;2380.80;;;;;;5035071;28;20037;-79
2021/09/02 06:09:15;;;;;;;9.80;5.15;;;486.70;2380.80;;;;;;5035959;28;20026;-79
2021/09/02 06:11:41;;;;;;;8.38;5.65;;;486.70;2380.80;;;;;;5034936;28;20034;-79
2021/09/02 06:14:07;;;;;;;9.48;5.50;;;486.70;2380.80;;;;;;5035010;28;20112;-79
2021/09/02 06:16:32;;;;;;;8.75;4.70;;;486.70;2380.80;;;;;;5034611;28;20075;-79
2021/09/02 06:18:58;;;;;;;8.23;4.85;;;486.50;2380.80;;;;;;5035616;28;20105;-78
2021/09/02 06:21:24;;;;;;;8.65;4.85;;;486.50;2380.80;;;;;;5034174;28;20588;-78
2021/09/02 06:23:50;;;;;;;8.45;5.65;;;486.50;2380.80;;;;;;5034445;28;20036;-79
2021/09/02 06:26:16;;;;;;;9.13;5.22;;;486.50;2380.80;;;;;;5035219;28;20524;-81
2021/09/02 06:28:42;;;;;;;8.68;5.05;;;486.50;2380.80;;;;;;5034670;28;20052;-80
2021/09/02 06:31:07;;;;;;;9.52;5.47;;;486.50;2380.80;;;;;;5034552;28;20437;-80
2021/09/02 06:33:35;;;;;;;8.55;5.40;;;486.50;2380.80;;;;;;5034480;28;20117;-79
2021/09/02 06:36:01;;;;;;;11.95;6.32;;;486.50;2380.80;;;;;;5034690;28;20124;-80
2021/09/02 06:38:27;;;;;;;8.70;5.05;;;486.60;2380.80;;;;;;5034382;28;20034;-79
2021/09/02 06:40:52;;;;;;;9.05;4.63;;;486.50;2380.80;;;;;;5034567;28;20082;-79
2021/09/02 06:43:18;;;;;;;9.82;4.82;;;486.50;2380.80;;;;;;5033963;28;20061;-80
2021/09/02 06:45:44;;;;;;;10.68;5.55;;;486.50;2380.80;;;;;;5034756;28;20362;-79
2021/09/02 06:48:10;;;;;;;6.95;5.10;;;486.60;2380.80;;;;;;5035942;28;20040;-80
2021/09/02 06:50:36;;;;;;;8.82;5.43;;;487.00;2380.80;;;;;;5036062;28;20032;-81
2021/09/02 06:53:02;;;;;;;9.23;5.78;;;486.70;2380.80;;;;;;5034250;28;20038;-81
2021/09/02 06:55:28;;;;;;;9.02;5.72;;;486.70;2380.80;;;;;;5034129;28;20480;-77
2021/09/02 06:57:53;;;;;;;11.88;6.57;;;486.80;2380.80;;;;;;5033889;28;20022;-77
2021/09/02 07:00:19;;;;;;;9.13;5.53;;;486.80;2380.80;;;;;;5034192;28;20029;-78
2021/09/02 07:02:45;;;;;;;9.70;5.63;;;486.70;2380.80;;;;;;5034037;28;20030;-77
2021/09/02 07:05:11;;;;;;;8.38;5.88;;;486.70;2380.80;;;;;;5033691;28;20103;-77
2021/09/02 07:07:37;;;;;;;11.45;5.35;;;486.70;2380.80;;;;;;5035977;28;20057;-77
2021/09/02 07:10:05;;;;;;;7.82;5.45;;;487.00;2380.80;;;;;;5036561;28;20026;-76
2021/09/02 07:12:31;;;;;;;9.35;5.10;;;486.80;2380.80;;;;;;5033280;28;20034;-77
2021/09/02 07:14:57;;;;;;;8.57;5.25;;;486.80;2380.80;;;;;;5035104;28;20029;-78
2021/09/02 07:17:23;;;;;;;8.18;5.55;;;486.80;2380.80;;;;;;5034031;28;20033;-77
2021/09/02 07:19:49;;;;;;;10.10;5.95;;;487.00;2380.80;;;;;;5033669;28;20346;-78
2021/09/02 07:22:14;;;;;;;13.43;6.57;;;487.00;2380.80;;;;;;5035019;28;20048;-77
2021/09/02 07:24:40;;;;;;;7.43;5.78;;;487.10;2380.80;;;;;;5033596;28;20084;-79
2021/09/02 07:27:06;;;;;;;8.48;5.97;;;487.20;2380.80;;;;;;5070999;28;20030;-77
2021/09/02 07:29:32;;;;;;;9.13;5.95;;;487.30;2380.80;;;;;;5033276;28;20041;-76
2021/09/02 07:31:59;;;;;;;8.65;6.38;;;487.30;2380.80;;;;;;5034561;28;20059;-77
2021/09/02 07:34:24;;;;;;;8.23;5.57;;;512.00;2380.80;;;;;;5027731;28;20029;-77
2021/09/02 07:36:50;;;;;;;11.27;5.72;;;487.30;2380.80;;;;;;5032743;28;20025;-77
2021/09/02 07:39:16;;;;;;;11.40;6.95;;;487.30;2380.80;;;;;;5034304;28;20449;-77
2021/09/02 07:41:42;;;;;;;9.55;6.00;;;512.00;2380.80;;;;;;5034994;28;20057;-78
2021/09/02 07:44:08;;;;;;;8.25;6.20;;;512.10;2380.80;;;;;;5033662;28;20030;-77
2021/09/02 07:46:34;;;;;;;9.55;6.30;;;512.20;2380.80;;;;;;5032855;28;20036;-77
2021/09/02 07:49:00;;;;;;;9.43;5.95;;;512.20;2380.80;;;;;;5033313;28;20385;-77
2021/09/02 07:51:26;;;;;;;8.05;6.60;;;512.40;2380.80;;;;;;5033059;28;20033;-77
2021/09/02 07:53:52;;;;;;;9.95;6.32;;;512.60;2380.80;;;;;;5032446;28;20041;-76
2021/09/02 07:56:18;;;;;;;6.97;5.70;;;512.70;2380.80;;;;;;5034617;28;20025;-77
2021/09/02 07:58:44;;;;;;;6.72;5.00;;;512.90;2380.80;;;;;;5032896;28;20047;-76
2021/09/02 08:01:12;;;;;;;10.23;5.95;;;512.90;2380.80;;;;;;5032788;28;20449;-77
2021/09/02 08:03:38;;;;;;;6.70;4.90;;;537.60;2406.40;;;;;;5034064;28;20149;-77
2021/09/02 08:06:04;;;;;;;9.52;4.90;;;537.70;2406.40;;;;;;5032390;28;20021;-77
2021/09/02 08:08:31;;;;;;;6.60;4.60;;;537.80;2380.80;;;;;;5027592;28;20028;-77
2021/09/02 08:10:57;;;;;;;7.18;4.53;;;512.90;2355.20;;;;;;5031010;28;20080;-75
2021/09/02 08:13:23;;;;;;;9.05;5.50;;;537.70;2380.80;;;;;;5031306;28;20029;-77
2021/09/02 08:15:48;;;;;;;7.72;5.05;;;537.70;2380.80;;;;;;5031801;28;20483;-78
2021/09/02 08:18:14;;;;;;;6.47;4.55;;;537.70;2406.40;;;;;;5033740;28;20017;-77
2021/09/02 08:20:41;;;;;;;9.68;4.75;;;537.80;2380.80;;;;;;5033551;28;20025;-77
2021/09/02 08:23:07;;;;;;;7.28;5.10;;;537.80;2355.20;;;;;;5033609;28;20033;-76
2021/09/02 08:25:33;;;;;;;7.47;5.00;;;537.80;2355.20;;;;;;5032636;28;20029;-77
2021/09/02 08:27:59;;;;;;;7.10;4.65;;;537.60;2355.20;;;;;;5032509;28;20507;-76
2021/09/02 08:30:27;;;;;;;5.63;4.47;;;537.90;2355.20;;;;;;5031182;28;20049;-77
2021/09/02 08:32:53;;;;;;;7.75;4.70;;;538.10;2329.60;;;;;;5032395;28;20164;-76
2021/09/02 08:35:30;;;;;;;7.57;4.47;;;538.10;2304.00;;;;;;5032093;28;20128;-75
2021/09/02 08:38:02;;;;;;;6.20;3.92;;;538.30;2304.00;;;;;;5033478;28;20485;-76
2021/09/02 08:40:32;;;;;;;6.00;3.95;;;538.50;2278.40;;;;;;5032706;28;20048;-78
2021/09/02 08:42:58;;;;;;;5.55;3.83;;;563.20;2278.40;;;;;;5032146;28;20033;-78
2021/09/02 08:45:26;;;;;;;5.50;4.22;;;563.40;2278.40;;;;;;5032520;28;20095;-77
2021/09/02 08:47:53;;;;;;;6.63;3.97;;;563.50;2278.40;;;;;;5031460;28;20050;-76
2021/09/02 08:50:23;;;;;;;6.05;3.83;;;563.60;2252.80;;;;;;5031399;28;20160;-76
2021/09/02 08:52:51;;;;;;;7.28;4.07;;;563.60;2252.80;;;;;;5033354;28;20060;-76
2021/09/02 08:55:17;;;;;;;5.80;3.90;;;563.60;2227.20;;;;;;5033803;28;20040;-76
2021/09/02 08:57:47;;;;;;;7.55;4.05;;;563.70;2227.20;;;;;;5033596;28;20127;-76
2021/09/02 09:00:14;;;;;;;7.05;3.67;;;563.80;2227.20;;;;;;5033707;28;20029;-76
2021/09/02 09:02:45;;;;;;;6.57;3.80;;;563.80;2176.00;;;;;;5032256;28;20041;-76
2021/09/02 09:05:20;;;;;;;5.70;3.85;;;563.90;2201.60;;;;;;5034135;28;20071;-76
2021/09/02 09:07:48;;;;;;;6.07;4.35;;;564.10;2201.60;;;;;;5036257;28;20021;-76
2021/09/02 09:10:25;;;;;;;5.88;4.15;;;563.90;2227.20;;;;;;5036264;28;20033;-76
2021/09/02 09:12:55;;;;;;;6.20;3.83;;;563.90;2227.20;;;;;;5037697;28;20029;-76
2021/09/02 09:15:27;;;;;;;6.63;4.10;;;564.10;2227.20;;;;;;5035898;28;20030;-77
2021/09/02 09:17:54;;;;;;;5.90;4.27;;;588.80;2176.00;;;;;;5036128;28;20029;-76
2021/09/02 09:20:22;;;;;;;8.48;4.75;;;588.80;2176.00;;;;;;5037177;28;20026;-76
2021/09/02 09:22:57;;;;;;;7.65;4.63;;;564.00;2201.60;;;;;;5035766;28;20033;-76
2021/09/02 09:25:23;;;;;;;5.93;4.15;;;563.90;2201.60;;;;;;5035917;28;20036;-76
2021/09/02 09:27:54;;;;;;;8.77;4.22;;;563.60;2201.60;;;;;;5035339;28;20034;-76
2021/09/02 09:30:24;;;;;;;5.57;4.45;;;563.70;2201.60;;;;;;5035761;28;20061;-76
2021/09/02 09:32:55;;;;;;;5.70;4.70;;;563.60;2252.80;;;;;;5035549;28;20041;-76
2021/09/02 09:35:26;;;;;;;6.07;4.43;;;563.50;2227.20;;;;;;5036825;28;20473;-76
2021/09/02 09:38:18;;;;;;;5.40;4.32;;;563.40;2252.80;;;;;;5036840;28;20025;-76
2021/09/02 09:40:52;;;;;;;8.90;4.80;;;563.70;2201.60;;;;;;5035486;28;20025;-76
2021/09/02 09:43:23;;;;;;;7.43;4.35;;;563.80;2201.60;;;;;;5035190;28;20116;-76
2021/09/02 09:45:58;;;;;;;6.85;4.95;;;563.90;2201.60;;;;;;5035423;28;20029;-77
2021/09/02 09:48:33;;;;;;;6.57;4.50;;;563.90;2227.20;;;;;;5035305;28;20021;-76
2021/09/02 09:51:18;;;;;;;8.13;5.53;;;563.90;2201.60;;;;;;5035158;28;20073;-77
2021/09/02 09:53:52;;;;;;;6.70;4.63;;;564.00;2201.60;;;;;;5035819;28;20030;-75
2021/09/02 09:56:24;;;;;;;7.28;4.90;;;588.80;2150.40;;;;;;5036249;28;20022;-76
2021/09/02 09:58:52;;;;;;;8.23;5.63;;;589.10;2124.80;;;;;;5035393;28;20477;-76
2021/09/02 10:01:18;;;;;;;7.57;5.32;;;589.00;2150.40;;;;;;5035511;28;20265;-76
2021/09/02 10:03:45;;;;;;;7.07;5.38;;;564.10;2201.60;;;;;;5036308;28;20461;-76
2021/09/02 10:06:13;;;;;;;6.50;5.40;;;564.10;2201.60;;;;;;5034100;28;20448;-76
2021/09/02 10:08:42;;;;;;;8.23;6.43;;;564.10;2176.00;;;;;;5036300;28;20546;-76
2021/09/02 10:11:11;;;;;;;7.13;5.43;;;589.10;2176.00;;;;;;5035475;28;20116;-76
2021/09/02 10:13:38;;;;;;;8.18;5.88;;;589.60;2124.80;;;;;;5036241;28;20432;-76
2021/09/02 10:16:05;;;;;;;6.35;4.97;;;589.40;2150.40;;;;;;5034377;28;20029;-76
2021/09/02 10:18:35;;;;;;;8.77;5.20;;;589.60;2099.20;;;;;;5034598;28;20025;-76
2021/09/02 10:21:05;;;;;;;7.57;5.88;;;589.70;2124.80;;;;;;5035032;28;20416;-76
2021/09/02 10:23:31;;;;;;;6.90;5.70;;;614.50;2099.20;;;;;;5034646;28;20030;-76
2021/09/02 10:25:57;;;;;;;8.90;5.47;;;614.80;2099.20;;;;;;5035936;28;20021;-76
2021/09/02 10:28:32;;;;;;;6.95;5.40;;;614.40;2124.80;;;;;;5034338;28;20111;-76
2021/09/02 10:31:03;;;;;;;7.88;5.70;;;614.40;2099.20;;;;;;5034255;28;20022;-76
2021/09/02 10:33:34;;;;;;;9.18;5.28;;;614.40;2099.20;;;;;;5034826;28;20040;-76
2021/09/02 10:36:29;;;;;;;7.43;5.70;;;589.50;2099.20;;;;;;5035629;28;20079;-77
2021/09/02 10:38:56;;;;;;;10.70;4.72;;;589.60;2124.80;;;;;;5029712;28;20037;-77
2021/09/02 10:41:35;;;;;;;7.70;4.82;;;614.80;2073.60;;;;;;5035597;28;20030;-76
2021/09/02 10:44:02;;;;;;;7.43;4.90;;;615.30;2022.40;;;;;;5034488;28;20120;-76
2021/09/02 10:46:40;;;;;;;7.15;5.57;;;614.80;2048.00;;;;;;5035327;28;20434;-76
2021/09/02 10:49:31;;;;;;;6.30;4.88;;;615.00;2048.00;;;;;;5034492;28;20028;-76
2021/09/02 10:52:05;;;;;;;6.80;5.38;;;614.80;2073.60;;;;;;5036047;28;20025;-76
2021/09/02 10:54:36;;;;;;;8.73;5.50;;;614.40;2073.60;;;;;;5035148;28;20128;-76
2021/09/02 10:57:20;;;;;;;9.57;5.20;;;589.60;2124.80;;;;;;5034427;28;20373;-76
2021/09/02 10:59:53;;;;;;;8.70;5.57;;;614.70;2099.20;;;;;;5034349;28;20162;-76
2021/09/02 11:02:25;;;;;;;8.13;5.53;;;640.00;1996.80;;;;;;5034224;28;20029;-76
2021/09/02 11:05:00;;;;;;;6.53;5.30;;;640.20;1971.20;;;;;;5034109;28;20033;-76
2021/09/02 11:07:46;;;;;;;8.80;5.10;;;614.90;1971.20;;;;;;5034216;28;20034;-77
2021/09/02 11:10:16;;;;;;;6.28;4.80;;;614.70;2022.40;;;;;;5034812;28;20026;-76
2021/09/02 11:12:42;;;;;;;7.90;5.13;;;614.50;2022.40;;;;;;5033690;28;20083;-75
2021/09/02 11:15:09;;;;;;;6.80;4.85;;;614.40;2073.60;;;;;;5035488;28;20453;-76
2021/09/02 11:17:35;;;;;;;6.65;4.70;;;614.80;2048.00;;;;;;5035117;28;20030;-76
2021/09/02 11:20:01;;;;;;;7.30;4.97;;;615.20;2073.60;;;;;;5035545;28;20108;-76
2021/09/02 11:22:27;;;;;;;7.90;4.57;;;640.10;2048.00;;;;;;5034982;28;20092;-76
2021/09/02 11:24:54;;;;;;;9.93;5.68;;;615.10;2022.40;;;;;;5035287;28;20022;-76
2021/09/02 11:27:27;;;;;;;7.68;4.57;;;614.80;2073.60;;;;;;5033516;28;20068;-76
2021/09/02 11:30:10;;;;;;;6.40;4.32;;;614.70;2099.20;;;;;;5034957;28;20041;-77
2021/09/02 11:32:36;;;;;;;7.30;4.82;;;614.50;2099.20;;;;;;5035008;28;20381;-76
2021/09/02 11:35:02;;;;;;;8.35;4.88;;;614.40;2124.80;;;;;;5034535;28;20029;-76
2021/09/02 11:37:57;;;;;;;6.93;4.88;;;614.40;2099.20;;;;;;5034618;28;20032;-76
2021/09/02 11:40:35;;;;;;;6.10;4.70;;;589.70;2124.80;;;;;;5016484;28;20072;-76
2021/09/02 11:43:02;;;;;;;5.68;4.68;;;614.70;2099.20;;;;;;5033370;28;20029;-76
2021/09/02 11:45:33;;;;;;;8.35;5.03;;;640.20;2022.40;;;;;;5034672;28;20026;-77
2021/09/02 11:48:06;;;;;;;6.00;4.68;;;640.30;2022.40;;;;;;5033201;28;20026;-77
2021/09/02 11:50:34;;;;;;;8.65;5.05;;;640.00;1996.80;;;;;;5033462;28;20029;-77
2021/09/02 11:53:00;;;;;;;7.38;4.30;;;615.00;2022.40;;;;;;5034208;28;20473;-76
2021/09/02 11:55:39;;;;;;;7.85;4.40;;;614.80;2073.60;;;;;;5034115;28;20029;-77
2021/09/02 11:58:06;;;;;;;6.15;4.18;;;614.70;2099.20;;;;;;5034705;28;20021;-76
2021/09/02 12:00:34;;;;;;;6.07;4.20;;;614.90;2124.80;;;;;;5032998;28;20491;-76
2021/09/02 12:03:01;;;;;;;5.95;3.60;;;614.60;2073.60;;;;;;5032571;28;20519;-76
2021/09/02 12:05:42;;;;;;;5.78;4.05;;;614.70;2048.00;;;;;;5034120;28;20021;-77
2021/09/02 12:08:10;;;;;;;7.00;4.13;;;614.80;2048.00;;;;;;5034418;28;20123;-76
2021/09/02 12:10:38;;;;;;;6.45;4.28;;;640.10;1971.20;;;;;;5033911;28;20017;-76
2021/09/02 12:13:20;;;;;;;4.75;3.03;;;;;;;;;;5032737;28;20056;-77
2021/09/02 12:16:00;;;;;;;7.03;3.50;;;665.90;1894.40;;;;;;5033518;28;20048;-77
2021/09/02 12:18:29;;;;;;;7.05;3.47;;;;;;;;;;5033763;28;20052;-77
2021/09/02 12:21:15;;;;;;;5.75;3.15;;;666.50;1817.60;;;;;;5032866;28;20044;-77